Washington, DC - DCA

Welcome to the Capitol

Ronald Reagan Washington National Airport serves the United States Capitol as American Airlines' domestic only hub connecting the east coast. AAG operates over 30% of the total passenger share out of this airport which features some of the most difficult approaches due to the surrounding airspace and close proximity to the capitol buildings.

DCA Based Pilots: 6   Miles to DCA: 45394
Flights from DCA: 100   Total Hours: 289.36
Routes using DCA: 1191   From DCA: 155.84
Total Miles: 99306   Hours To DCA: 133.52
Miles from DCA: 53912   DCA Charts: Click Here
VATSIM METAR: KDCA 012052Z 19008KT 10SM BKN110 BKN150 BKN250 12/01 A3012 RMK AO2 SLP201 T01170006 56016
 
         
View More: Click Here
   

 

Earn Your Wings

Interested in joining our DCA hub? Hover for more!

Your journey starts here. Your journey starts now. A whole new experience is at your fingertips.

Like what you see and ready to join the team?

A rewarding and memorable virtual airline experience awaits!